sensor_id;sensor_type;location;lat;lon;timestamp;P1;durP1;ratioP1;P2;durP2;ratioP2
6751;SDS011;3413;47.680;9.166;2023-05-07T00:00:31;8.07;;;1.83;;
6751;SDS011;3413;47.680;9.166;2023-05-07T00:05:35;5.03;;;2.00;;
6751;SDS011;3413;47.680;9.166;2023-05-07T00:10:37;3.97;;;1.70;;
6751;SDS011;3413;47.680;9.166;2023-05-07T00:15:39;7.10;;;2.00;;
6751;SDS011;3413;47.680;9.166;2023-05-07T00:20:41;4.70;;;2.00;;
6751;SDS011;3413;47.680;9.166;2023-05-07T00:25:42;3.17;;;2.30;;
6751;SDS011;3413;47.680;9.166;2023-05-07T00:30:44;4.53;;;2.23;;
6751;SDS011;3413;47.680;9.166;2023-05-07T00:35:46;3.13;;;2.07;;
6751;SDS011;3413;47.680;9.166;2023-05-07T00:40:48;4.07;;;2.10;;
6751;SDS011;3413;47.680;9.166;2023-05-07T00:45:50;3.57;;;2.10;;
6751;SDS011;3413;47.680;9.166;2023-05-07T00:50:52;6.77;;;2.47;;
6751;SDS011;3413;47.680;9.166;2023-05-07T00:55:55;3.93;;;2.20;;
6751;SDS011;3413;47.680;9.166;2023-05-07T01:00:57;9.03;;;2.90;;
6751;SDS011;3413;47.680;9.166;2023-05-07T01:05:59;3.90;;;2.23;;
6751;SDS011;3413;47.680;9.166;2023-05-07T01:11:03;2.83;;;1.60;;
6751;SDS011;3413;47.680;9.166;2023-05-07T01:16:05;4.87;;;2.50;;
6751;SDS011;3413;47.680;9.166;2023-05-07T01:21:08;5.27;;;2.00;;
6751;SDS011;3413;47.680;9.166;2023-05-07T01:26:12;5.73;;;2.33;;
6751;SDS011;3413;47.680;9.166;2023-05-07T01:31:17;9.80;;;2.17;;
6751;SDS011;3413;47.680;9.166;2023-05-07T01:36:20;4.77;;;2.03;;
6751;SDS011;3413;47.680;9.166;2023-05-07T01:41:24;6.10;;;1.90;;
6751;SDS011;3413;47.680;9.166;2023-05-07T01:46:26;5.33;;;2.50;;
6751;SDS011;3413;47.680;9.166;2023-05-07T01:51:29;3.27;;;2.60;;
6751;SDS011;3413;47.680;9.166;2023-05-07T01:56:31;9.13;;;1.97;;
6751;SDS011;3413;47.680;9.166;2023-05-07T02:01:33;4.67;;;2.30;;
6751;SDS011;3413;47.680;9.166;2023-05-07T02:06:35;4.33;;;1.90;;
6751;SDS011;3413;47.680;9.166;2023-05-07T02:11:40;5.47;;;2.00;;
6751;SDS011;3413;47.680;9.166;2023-05-07T02:16:42;5.20;;;2.70;;
6751;SDS011;3413;47.680;9.166;2023-05-07T02:21:47;5.93;;;2.40;;
6751;SDS011;3413;47.680;9.166;2023-05-07T02:26:49;3.43;;;2.13;;
6751;SDS011;3413;47.680;9.166;2023-05-07T02:31:51;3.77;;;2.43;;
6751;SDS011;3413;47.680;9.166;2023-05-07T02:36:54;5.13;;;2.23;;
6751;SDS011;3413;47.680;9.166;2023-05-07T02:42:00;5.97;;;2.30;;
6751;SDS011;3413;47.680;9.166;2023-05-07T02:47:03;4.03;;;1.77;;
6751;SDS011;3413;47.680;9.166;2023-05-07T02:52:23;5.17;;;2.23;;
6751;SDS011;3413;47.680;9.166;2023-05-07T02:57:43;7.07;;;2.43;;
6751;SDS011;3413;47.680;9.166;2023-05-07T03:02:45;13.40;;;2.20;;
6751;SDS011;3413;47.680;9.166;2023-05-07T03:07:48;9.10;;;2.80;;
6751;SDS011;3413;47.680;9.166;2023-05-07T03:13:02;5.07;;;2.30;;
6751;SDS011;3413;47.680;9.166;2023-05-07T03:18:09;5.00;;;2.70;;
6751;SDS011;3413;47.680;9.166;2023-05-07T03:23:12;4.93;;;2.10;;
6751;SDS011;3413;47.680;9.166;2023-05-07T03:28:14;4.77;;;2.40;;
6751;SDS011;3413;47.680;9.166;2023-05-07T03:33:27;3.70;;;2.37;;
6751;SDS011;3413;47.680;9.166;2023-05-07T03:38:29;4.90;;;2.80;;
6751;SDS011;3413;47.680;9.166;2023-05-07T03:43:32;3.30;;;2.40;;
6751;SDS011;3413;47.680;9.166;2023-05-07T03:48:40;5.30;;;2.63;;
6751;SDS011;3413;47.680;9.166;2023-05-07T03:53:43;3.50;;;2.40;;
6751;SDS011;3413;47.680;9.166;2023-05-07T03:58:46;5.53;;;2.90;;
6751;SDS011;3413;47.680;9.166;2023-05-07T04:04:25;7.43;;;2.87;;
6751;SDS011;3413;47.680;9.166;2023-05-07T04:09:28;4.30;;;2.67;;
6751;SDS011;3413;47.680;9.166;2023-05-07T04:14:31;5.57;;;2.67;;
6751;SDS011;3413;47.680;9.166;2023-05-07T04:31:58;11.93;;;2.77;;
6751;SDS011;3413;47.680;9.166;2023-05-07T04:37:11;3.10;;;2.60;;
6751;SDS011;3413;47.680;9.166;2023-05-07T04:42:18;4.67;;;2.57;;
6751;SDS011;3413;47.680;9.166;2023-05-07T04:47:24;4.00;;;2.50;;
6751;SDS011;3413;47.680;9.166;2023-05-07T04:52:28;4.07;;;2.33;;
6751;SDS011;3413;47.680;9.166;2023-05-07T04:57:51;4.30;;;2.23;;
6751;SDS011;3413;47.680;9.166;2023-05-07T05:02:56;5.17;;;3.00;;
6751;SDS011;3413;47.680;9.166;2023-05-07T05:13:29;6.13;;;3.30;;
6751;SDS011;3413;47.680;9.166;2023-05-07T05:18:32;4.10;;;2.60;;
6751;SDS011;3413;47.680;9.166;2023-05-07T05:23:35;8.40;;;3.10;;
6751;SDS011;3413;47.680;9.166;2023-05-07T05:28:37;5.90;;;2.63;;
6751;SDS011;3413;47.680;9.166;2023-05-07T05:33:40;9.23;;;2.70;;
6751;SDS011;3413;47.680;9.166;2023-05-07T05:38:42;7.67;;;3.47;;
6751;SDS011;3413;47.680;9.166;2023-05-07T05:43:46;4.93;;;3.10;;
6751;SDS011;3413;47.680;9.166;2023-05-07T05:48:50;5.30;;;3.00;;
6751;SDS011;3413;47.680;9.166;2023-05-07T05:53:53;7.37;;;3.40;;
6751;SDS011;3413;47.680;9.166;2023-05-07T05:58:57;4.67;;;2.90;;
6751;SDS011;3413;47.680;9.166;2023-05-07T06:03:59;7.30;;;3.33;;
6751;SDS011;3413;47.680;9.166;2023-05-07T06:09:03;7.63;;;3.20;;
6751;SDS011;3413;47.680;9.166;2023-05-07T06:14:11;6.30;;;3.10;;
6751;SDS011;3413;47.680;9.166;2023-05-07T06:19:14;7.50;;;3.27;;
6751;SDS011;3413;47.680;9.166;2023-05-07T06:24:20;7.43;;;3.60;;
6751;SDS011;3413;47.680;9.166;2023-05-07T06:29:23;10.23;;;3.17;;
6751;SDS011;3413;47.680;9.166;2023-05-07T06:34:28;10.30;;;3.27;;
6751;SDS011;3413;47.680;9.166;2023-05-07T06:39:31;6.20;;;3.40;;
6751;SDS011;3413;47.680;9.166;2023-05-07T06:44:36;5.93;;;3.10;;
6751;SDS011;3413;47.680;9.166;2023-05-07T06:49:43;6.80;;;3.87;;
6751;SDS011;3413;47.680;9.166;2023-05-07T06:54:51;5.87;;;3.30;;
6751;SDS011;3413;47.680;9.166;2023-05-07T07:00:02;6.57;;;3.00;;
6751;SDS011;3413;47.680;9.166;2023-05-07T07:05:17;4.73;;;2.80;;
6751;SDS011;3413;47.680;9.166;2023-05-07T07:10:32;5.40;;;3.00;;
6751;SDS011;3413;47.680;9.166;2023-05-07T07:15:42;5.37;;;2.87;;
6751;SDS011;3413;47.680;9.166;2023-05-07T07:20:52;6.57;;;3.80;;
6751;SDS011;3413;47.680;9.166;2023-05-07T07:25:58;5.80;;;3.30;;
6751;SDS011;3413;47.680;9.166;2023-05-07T07:31:07;5.20;;;3.00;;
6751;SDS011;3413;47.680;9.166;2023-05-07T07:36:21;7.03;;;3.47;;
6751;SDS011;3413;47.680;9.166;2023-05-07T07:41:48;7.97;;;3.47;;
6751;SDS011;3413;47.680;9.166;2023-05-07T07:47:07;10.20;;;3.23;;
6751;SDS011;3413;47.680;9.166;2023-05-07T07:52:49;10.70;;;3.23;;
6751;SDS011;3413;47.680;9.166;2023-05-07T07:58:12;7.30;;;3.77;;
6751;SDS011;3413;47.680;9.166;2023-05-07T08:10:07;7.50;;;3.60;;
6751;SDS011;3413;47.680;9.166;2023-05-07T08:21:15;6.20;;;2.73;;
6751;SDS011;3413;47.680;9.166;2023-05-07T08:27:43;14.10;;;3.60;;
6751;SDS011;3413;47.680;9.166;2023-05-07T08:33:33;7.03;;;2.97;;
6751;SDS011;3413;47.680;9.166;2023-05-07T08:39:56;6.00;;;3.07;;
6751;SDS011;3413;47.680;9.166;2023-05-07T08:46:25;6.50;;;3.20;;
6751;SDS011;3413;47.680;9.166;2023-05-07T08:53:28;7.07;;;3.73;;
6751;SDS011;3413;47.680;9.166;2023-05-07T09:00:03;4.80;;;3.17;;
6751;SDS011;3413;47.680;9.166;2023-05-07T09:05:11;10.47;;;2.43;;
6751;SDS011;3413;47.680;9.166;2023-05-07T09:10:13;3.37;;;2.10;;
6751;SDS011;3413;47.680;9.166;2023-05-07T09:15:17;3.07;;;2.03;;
6751;SDS011;3413;47.680;9.166;2023-05-07T09:20:20;3.80;;;1.80;;
6751;SDS011;3413;47.680;9.166;2023-05-07T09:25:29;5.83;;;2.03;;
6751;SDS011;3413;47.680;9.166;2023-05-07T09:30:37;6.27;;;2.10;;
6751;SDS011;3413;47.680;9.166;2023-05-07T09:35:42;3.10;;;1.97;;
6751;SDS011;3413;47.680;9.166;2023-05-07T09:41:01;3.20;;;1.80;;
6751;SDS011;3413;47.680;9.166;2023-05-07T09:46:33;2.93;;;1.40;;
6751;SDS011;3413;47.680;9.166;2023-05-07T09:51:49;3.50;;;1.77;;
6751;SDS011;3413;47.680;9.166;2023-05-07T09:56:55;2.10;;;1.20;;
6751;SDS011;3413;47.680;9.166;2023-05-07T10:02:00;5.47;;;2.10;;
6751;SDS011;3413;47.680;9.166;2023-05-07T10:07:08;2.80;;;1.70;;
6751;SDS011;3413;47.680;9.166;2023-05-07T10:12:11;5.30;;;1.70;;
6751;SDS011;3413;47.680;9.166;2023-05-07T10:17:13;5.80;;;1.80;;
6751;SDS011;3413;47.680;9.166;2023-05-07T10:22:19;2.87;;;1.73;;
6751;SDS011;3413;47.680;9.166;2023-05-07T10:27:23;5.43;;;2.07;;
6751;SDS011;3413;47.680;9.166;2023-05-07T10:32:45;1.80;;;1.30;;
6751;SDS011;3413;47.680;9.166;2023-05-07T10:38:00;2.67;;;1.57;;
6751;SDS011;3413;47.680;9.166;2023-05-07T10:43:05;3.20;;;1.80;;
6751;SDS011;3413;47.680;9.166;2023-05-07T10:48:25;5.87;;;2.43;;
6751;SDS011;3413;47.680;9.166;2023-05-07T10:53:39;3.80;;;1.90;;
6751;SDS011;3413;47.680;9.166;2023-05-07T10:58:48;4.00;;;1.70;;
6751;SDS011;3413;47.680;9.166;2023-05-07T11:04:16;3.07;;;1.77;;
6751;SDS011;3413;47.680;9.166;2023-05-07T11:15:11;5.37;;;2.60;;
6751;SDS011;3413;47.680;9.166;2023-05-07T11:20:16;3.90;;;1.90;;
6751;SDS011;3413;47.680;9.166;2023-05-07T11:25:26;4.67;;;2.67;;
6751;SDS011;3413;47.680;9.166;2023-05-07T11:30:38;6.33;;;2.57;;
6751;SDS011;3413;47.680;9.166;2023-05-07T11:35:46;3.40;;;1.97;;
6751;SDS011;3413;47.680;9.166;2023-05-07T11:40:57;3.13;;;2.00;;
6751;SDS011;3413;47.680;9.166;2023-05-07T11:46:06;9.87;;;2.80;;
6751;SDS011;3413;47.680;9.166;2023-05-07T11:51:13;5.33;;;2.03;;
6751;SDS011;3413;47.680;9.166;2023-05-07T11:56:19;11.53;;;2.53;;
6751;SDS011;3413;47.680;9.166;2023-05-07T12:01:22;8.07;;;3.57;;
6751;SDS011;3413;47.680;9.166;2023-05-07T12:06:23;4.63;;;2.67;;
6751;SDS011;3413;47.680;9.166;2023-05-07T12:11:25;5.03;;;2.80;;
6751;SDS011;3413;47.680;9.166;2023-05-07T12:16:27;5.20;;;3.03;;
6751;SDS011;3413;47.680;9.166;2023-05-07T12:21:30;4.73;;;3.10;;
6751;SDS011;3413;47.680;9.166;2023-05-07T12:26:32;9.43;;;3.30;;
6751;SDS011;3413;47.680;9.166;2023-05-07T12:31:42;7.50;;;3.50;;
6751;SDS011;3413;47.680;9.166;2023-05-07T12:36:44;5.20;;;3.30;;
6751;SDS011;3413;47.680;9.166;2023-05-07T12:41:55;6.73;;;3.10;;
6751;SDS011;3413;47.680;9.166;2023-05-07T12:47:02;7.77;;;2.90;;
6751;SDS011;3413;47.680;9.166;2023-05-07T12:52:04;4.70;;;2.30;;
6751;SDS011;3413;47.680;9.166;2023-05-07T12:57:08;3.63;;;2.60;;
6751;SDS011;3413;47.680;9.166;2023-05-07T13:02:11;4.00;;;2.13;;
6751;SDS011;3413;47.680;9.166;2023-05-07T13:07:15;4.97;;;2.20;;
6751;SDS011;3413;47.680;9.166;2023-05-07T13:12:16;6.80;;;2.60;;
6751;SDS011;3413;47.680;9.166;2023-05-07T13:17:18;2.53;;;1.40;;
6751;SDS011;3413;47.680;9.166;2023-05-07T13:22:20;4.07;;;1.80;;
6751;SDS011;3413;47.680;9.166;2023-05-07T13:27:22;6.47;;;1.80;;
6751;SDS011;3413;47.680;9.166;2023-05-07T13:32:24;1.97;;;1.47;;
6751;SDS011;3413;47.680;9.166;2023-05-07T13:37:26;4.17;;;2.10;;
6751;SDS011;3413;47.680;9.166;2023-05-07T13:42:28;4.20;;;2.40;;
6751;SDS011;3413;47.680;9.166;2023-05-07T13:47:30;5.33;;;1.50;;
6751;SDS011;3413;47.680;9.166;2023-05-07T13:52:32;9.93;;;1.50;;
6751;SDS011;3413;47.680;9.166;2023-05-07T13:57:34;7.40;;;1.70;;
6751;SDS011;3413;47.680;9.166;2023-05-07T14:02:36;3.67;;;1.60;;
6751;SDS011;3413;47.680;9.166;2023-05-07T14:07:38;3.70;;;1.73;;
6751;SDS011;3413;47.680;9.166;2023-05-07T14:12:40;3.70;;;1.80;;
6751;SDS011;3413;47.680;9.166;2023-05-07T14:17:42;3.57;;;1.77;;
6751;SDS011;3413;47.680;9.166;2023-05-07T14:22:45;3.80;;;1.63;;
6751;SDS011;3413;47.680;9.166;2023-05-07T14:27:47;2.73;;;1.43;;
6751;SDS011;3413;47.680;9.166;2023-05-07T14:32:49;3.20;;;1.90;;
6751;SDS011;3413;47.680;9.166;2023-05-07T14:37:51;1.93;;;1.30;;
6751;SDS011;3413;47.680;9.166;2023-05-07T14:42:53;3.60;;;1.20;;
6751;SDS011;3413;47.680;9.166;2023-05-07T14:47:55;6.20;;;1.80;;
6751;SDS011;3413;47.680;9.166;2023-05-07T14:52:57;5.10;;;2.30;;
6751;SDS011;3413;47.680;9.166;2023-05-07T14:57:59;2.67;;;1.63;;
6751;SDS011;3413;47.680;9.166;2023-05-07T15:03:07;1.50;;;0.90;;
6751;SDS011;3413;47.680;9.166;2023-05-07T15:08:10;3.17;;;1.40;;
6751;SDS011;3413;47.680;9.166;2023-05-07T15:13:16;2.33;;;1.30;;
6751;SDS011;3413;47.680;9.166;2023-05-07T15:18:20;2.00;;;1.00;;
6751;SDS011;3413;47.680;9.166;2023-05-07T15:23:23;4.10;;;1.10;;
6751;SDS011;3413;47.680;9.166;2023-05-07T15:28:25;2.10;;;1.03;;
6751;SDS011;3413;47.680;9.166;2023-05-07T15:33:30;7.87;;;2.20;;
6751;SDS011;3413;47.680;9.166;2023-05-07T15:38:32;4.40;;;1.70;;
6751;SDS011;3413;47.680;9.166;2023-05-07T15:43:33;3.30;;;2.03;;
6751;SDS011;3413;47.680;9.166;2023-05-07T15:48:45;2.77;;;1.30;;
6751;SDS011;3413;47.680;9.166;2023-05-07T15:53:48;2.13;;;1.10;;
6751;SDS011;3413;47.680;9.166;2023-05-07T15:58:50;1.87;;;1.20;;
6751;SDS011;3413;47.680;9.166;2023-05-07T16:03:53;2.73;;;1.00;;
6751;SDS011;3413;47.680;9.166;2023-05-07T16:08:56;2.40;;;1.27;;
6751;SDS011;3413;47.680;9.166;2023-05-07T16:13:59;3.40;;;1.30;;
6751;SDS011;3413;47.680;9.166;2023-05-07T16:19:01;3.00;;;1.30;;
6751;SDS011;3413;47.680;9.166;2023-05-07T16:24:04;1.73;;;1.00;;
6751;SDS011;3413;47.680;9.166;2023-05-07T16:29:06;2.20;;;1.37;;
6751;SDS011;3413;47.680;9.166;2023-05-07T16:34:08;3.40;;;1.33;;
6751;SDS011;3413;47.680;9.166;2023-05-07T16:39:10;2.63;;;1.00;;
6751;SDS011;3413;47.680;9.166;2023-05-07T16:44:12;2.03;;;1.00;;
6751;SDS011;3413;47.680;9.166;2023-05-07T16:49:14;1.80;;;1.23;;
6751;SDS011;3413;47.680;9.166;2023-05-07T16:54:16;3.30;;;1.50;;
6751;SDS011;3413;47.680;9.166;2023-05-07T16:59:18;2.03;;;1.30;;
6751;SDS011;3413;47.680;9.166;2023-05-07T17:04:20;3.00;;;1.30;;
6751;SDS011;3413;47.680;9.166;2023-05-07T17:09:22;4.53;;;1.87;;
6751;SDS011;3413;47.680;9.166;2023-05-07T17:14:23;6.20;;;1.47;;
6751;SDS011;3413;47.680;9.166;2023-05-07T17:19:26;1.87;;;1.40;;
6751;SDS011;3413;47.680;9.166;2023-05-07T17:24:28;3.13;;;1.37;;
6751;SDS011;3413;47.680;9.166;2023-05-07T17:29:30;2.13;;;1.37;;
6751;SDS011;3413;47.680;9.166;2023-05-07T17:34:32;2.37;;;1.47;;
6751;SDS011;3413;47.680;9.166;2023-05-07T17:39:37;3.30;;;1.90;;
6751;SDS011;3413;47.680;9.166;2023-05-07T17:44:39;2.50;;;1.60;;
6751;SDS011;3413;47.680;9.166;2023-05-07T17:49:41;2.70;;;1.47;;
6751;SDS011;3413;47.680;9.166;2023-05-07T17:54:43;2.00;;;1.47;;
6751;SDS011;3413;47.680;9.166;2023-05-07T17:59:45;2.70;;;1.70;;
6751;SDS011;3413;47.680;9.166;2023-05-07T18:04:47;3.43;;;1.90;;
6751;SDS011;3413;47.680;9.166;2023-05-07T18:09:49;4.33;;;2.00;;
6751;SDS011;3413;47.680;9.166;2023-05-07T18:14:51;7.40;;;2.40;;
6751;SDS011;3413;47.680;9.166;2023-05-07T18:19:53;4.37;;;1.83;;
6751;SDS011;3413;47.680;9.166;2023-05-07T18:25:12;6.70;;;1.90;;
6751;SDS011;3413;47.680;9.166;2023-05-07T18:30:14;5.37;;;1.93;;
6751;SDS011;3413;47.680;9.166;2023-05-07T18:35:16;2.63;;;1.53;;
6751;SDS011;3413;47.680;9.166;2023-05-07T18:40:18;4.13;;;1.90;;
6751;SDS011;3413;47.680;9.166;2023-05-07T18:45:21;2.47;;;1.77;;
6751;SDS011;3413;47.680;9.166;2023-05-07T18:50:23;6.63;;;1.90;;
6751;SDS011;3413;47.680;9.166;2023-05-07T18:55:25;4.13;;;1.80;;
6751;SDS011;3413;47.680;9.166;2023-05-07T19:00:27;5.10;;;1.70;;
6751;SDS011;3413;47.680;9.166;2023-05-07T19:05:29;5.60;;;1.50;;
6751;SDS011;3413;47.680;9.166;2023-05-07T19:10:31;2.43;;;1.63;;
6751;SDS011;3413;47.680;9.166;2023-05-07T19:15:33;3.90;;;1.90;;
6751;SDS011;3413;47.680;9.166;2023-05-07T19:20:35;2.90;;;1.47;;
6751;SDS011;3413;47.680;9.166;2023-05-07T19:25:37;3.47;;;1.40;;
6751;SDS011;3413;47.680;9.166;2023-05-07T19:30:39;2.13;;;1.60;;
6751;SDS011;3413;47.680;9.166;2023-05-07T19:35:42;4.57;;;1.77;;
6751;SDS011;3413;47.680;9.166;2023-05-07T19:40:44;7.60;;;1.90;;
6751;SDS011;3413;47.680;9.166;2023-05-07T19:45:46;2.50;;;1.40;;
6751;SDS011;3413;47.680;9.166;2023-05-07T19:50:48;2.57;;;1.77;;
6751;SDS011;3413;47.680;9.166;2023-05-07T19:55:58;3.07;;;1.70;;
6751;SDS011;3413;47.680;9.166;2023-05-07T20:01:02;4.93;;;1.73;;
6751;SDS011;3413;47.680;9.166;2023-05-07T20:06:06;2.30;;;1.53;;
6751;SDS011;3413;47.680;9.166;2023-05-07T20:11:08;4.50;;;1.50;;
6751;SDS011;3413;47.680;9.166;2023-05-07T20:16:11;2.80;;;1.60;;
6751;SDS011;3413;47.680;9.166;2023-05-07T20:21:13;2.43;;;1.27;;
6751;SDS011;3413;47.680;9.166;2023-05-07T20:26:16;1.83;;;1.10;;
6751;SDS011;3413;47.680;9.166;2023-05-07T20:31:18;1.90;;;1.20;;
6751;SDS011;3413;47.680;9.166;2023-05-07T20:36:20;2.00;;;1.20;;
6751;SDS011;3413;47.680;9.166;2023-05-07T20:41:25;2.37;;;1.50;;
6751;SDS011;3413;47.680;9.166;2023-05-07T20:46:27;3.17;;;1.30;;
6751;SDS011;3413;47.680;9.166;2023-05-07T20:51:29;2.10;;;1.30;;
6751;SDS011;3413;47.680;9.166;2023-05-07T20:56:32;2.13;;;1.30;;
6751;SDS011;3413;47.680;9.166;2023-05-07T21:01:34;4.23;;;1.30;;
6751;SDS011;3413;47.680;9.166;2023-05-07T21:06:36;2.50;;;0.90;;
6751;SDS011;3413;47.680;9.166;2023-05-07T21:11:38;2.73;;;0.77;;
6751;SDS011;3413;47.680;9.166;2023-05-07T21:16:40;1.60;;;0.90;;
6751;SDS011;3413;47.680;9.166;2023-05-07T21:21:43;1.10;;;0.90;;
6751;SDS011;3413;47.680;9.166;2023-05-07T21:26:45;1.83;;;0.90;;
6751;SDS011;3413;47.680;9.166;2023-05-07T21:31:47;1.73;;;1.10;;
6751;SDS011;3413;47.680;9.166;2023-05-07T21:36:49;2.03;;;1.00;;
6751;SDS011;3413;47.680;9.166;2023-05-07T21:41:51;1.40;;;0.80;;
6751;SDS011;3413;47.680;9.166;2023-05-07T21:46:53;2.97;;;1.00;;
6751;SDS011;3413;47.680;9.166;2023-05-07T21:51:55;1.33;;;0.83;;
6751;SDS011;3413;47.680;9.166;2023-05-07T21:56:57;2.80;;;0.97;;
6751;SDS011;3413;47.680;9.166;2023-05-07T22:01:59;1.80;;;0.87;;
6751;SDS011;3413;47.680;9.166;2023-05-07T22:07:01;1.97;;;1.00;;
6751;SDS011;3413;47.680;9.166;2023-05-07T22:12:03;1.97;;;0.90;;
6751;SDS011;3413;47.680;9.166;2023-05-07T22:17:05;1.20;;;0.80;;
6751;SDS011;3413;47.680;9.166;2023-05-07T22:22:07;1.50;;;0.90;;
6751;SDS011;3413;47.680;9.166;2023-05-07T22:27:09;1.10;;;0.80;;
6751;SDS011;3413;47.680;9.166;2023-05-07T22:32:11;1.50;;;1.00;;
6751;SDS011;3413;47.680;9.166;2023-05-07T22:37:13;2.43;;;0.90;;
6751;SDS011;3413;47.680;9.166;2023-05-07T22:42:15;1.90;;;1.00;;
6751;SDS011;3413;47.680;9.166;2023-05-07T22:47:17;2.43;;;0.80;;
6751;SDS011;3413;47.680;9.166;2023-05-07T22:52:19;2.13;;;1.13;;
6751;SDS011;3413;47.680;9.166;2023-05-07T22:57:21;1.37;;;0.90;;
6751;SDS011;3413;47.680;9.166;2023-05-07T23:02:23;1.60;;;0.80;;
6751;SDS011;3413;47.680;9.166;2023-05-07T23:07:28;1.70;;;0.90;;
6751;SDS011;3413;47.680;9.166;2023-05-07T23:12:30;1.00;;;0.70;;
6751;SDS011;3413;47.680;9.166;2023-05-07T23:17:32;1.20;;;0.60;;
6751;SDS011;3413;47.680;9.166;2023-05-07T23:22:34;1.70;;;0.80;;
6751;SDS011;3413;47.680;9.166;2023-05-07T23:27:36;1.00;;;0.50;;
6751;SDS011;3413;47.680;9.166;2023-05-07T23:32:38;1.30;;;0.80;;
6751;SDS011;3413;47.680;9.166;2023-05-07T23:37:40;1.10;;;0.60;;
6751;SDS011;3413;47.680;9.166;2023-05-07T23:42:42;1.30;;;0.73;;
6751;SDS011;3413;47.680;9.166;2023-05-07T23:47:44;1.10;;;0.63;;
6751;SDS011;3413;47.680;9.166;2023-05-07T23:52:46;1.10;;;0.73;;
6751;SDS011;3413;47.680;9.166;2023-05-07T23:57:48;1.00;;;0.63;;
